Time;durP1;ratioP1;P1;durP2;ratioP2;P2;SDS_P1;SDS_P2;PMS_P1;PMS_P2;Temp;Humidity;BMP_temperature;BMP_pressure;BME280_temperature;BME280_humidity;BME280_pressure;Samples;Min_cycle;Max_cycle;Signal;HPM_P1;HPM_P2
2022/04/11 00:01:58;;;;;;;1.20;1.10;;;5.00;99.90;;;;;;5034261;28;20163;-68
2022/04/11 00:04:24;;;;;;;1.60;1.50;;;5.00;99.90;;;;;;5034505;28;20676;-68
2022/04/11 00:06:49;;;;;;;1.47;1.17;;;5.00;99.90;;;;;;5034084;28;20196;-69
2022/04/11 00:09:15;;;;;;;1.90;0.93;;;5.00;99.90;;;;;;5034329;28;20462;-67
2022/04/11 00:11:41;;;;;;;4.17;1.03;;;4.90;99.90;;;;;;5034106;28;20182;-67
2022/04/11 00:14:06;;;;;;;1.23;1.03;;;4.90;99.90;;;;;;5034388;28;20602;-68
2022/04/11 00:16:32;;;;;;;1.07;0.93;;;4.90;99.90;;;;;;5034270;28;20276;-68
2022/04/11 00:18:57;;;;;;;1.07;0.97;;;4.90;99.90;;;;;;5034317;28;20168;-67
2022/04/11 00:21:23;;;;;;;1.43;1.33;;;4.90;99.90;;;;;;5034764;28;20187;-68
2022/04/11 00:23:48;;;;;;;4.07;1.30;;;4.90;99.90;;;;;;5035168;28;20182;-68
2022/04/11 00:26:14;;;;;;;1.90;1.00;;;4.80;99.90;;;;;;5034759;28;20179;-69
2022/04/11 00:28:39;;;;;;;1.27;1.17;;;4.80;99.90;;;;;;5035357;28;20222;-69
2022/04/11 00:31:05;;;;;;;2.87;1.73;;;4.80;99.90;;;;;;5034747;28;20172;-69
2022/04/11 00:33:30;;;;;;;3.80;0.90;;;4.80;99.90;;;;;;5034835;28;20170;-69
2022/04/11 00:35:56;;;;;;;2.50;1.33;;;4.80;99.90;;;;;;5034281;28;20167;-69
2022/04/11 00:38:21;;;;;;;3.83;1.30;;;4.70;99.90;;;;;;5034762;28;20770;-68
2022/04/11 00:40:47;;;;;;;2.67;1.00;;;4.70;99.90;;;;;;5034648;28;20172;-67
2022/04/11 00:43:32;;;;;;;1.27;1.17;;;4.60;99.90;;;;;;5033183;28;20298;-68
2022/04/11 00:45:57;;;;;;;1.20;1.10;;;4.60;99.90;;;;;;5034469;28;20524;-67
2022/04/11 00:48:23;;;;;;;2.23;1.23;;;4.50;99.90;;;;;;5033758;28;20489;-68
2022/04/11 00:50:50;;;;;;;0.97;0.97;;;4.40;99.90;;;;;;5034218;28;20554;-68
2022/04/11 00:53:16;;;;;;;1.27;1.00;;;4.40;99.90;;;;;;5033865;28;20168;-68
2022/04/11 00:55:42;;;;;;;0.80;0.80;;;4.40;99.90;;;;;;5033692;28;20457;-68
2022/04/11 00:58:08;;;;;;;1.20;1.10;;;4.40;99.90;;;;;;5033578;28;20278;-68
2022/04/11 01:00:35;;;;;;;1.17;1.10;;;4.30;99.90;;;;;;5033784;28;20476;-68
2022/04/11 01:03:00;;;;;;;2.90;1.30;;;4.20;99.90;;;;;;5033428;28;20638;-67
2022/04/11 01:05:25;;;;;;;1.03;1.03;;;4.20;99.90;;;;;;5033383;28;20406;-68
2022/04/11 01:07:51;;;;;;;1.00;1.00;;;4.10;99.90;;;;;;5032849;28;20804;-68
2022/04/11 01:10:17;;;;;;;1.27;1.17;;;4.20;99.90;;;;;;5032949;28;20222;-68
2022/04/11 01:12:43;;;;;;;4.40;1.30;;;4.20;99.90;;;;;;5029680;28;20168;-68
2022/04/11 01:15:09;;;;;;;1.33;1.23;;;4.00;99.90;;;;;;5032853;28;20222;-68
2022/04/11 01:17:38;;;;;;;1.20;1.10;;;3.90;99.90;;;;;;5029230;28;20274;-68
2022/04/11 01:20:12;;;;;;;1.10;1.07;;;3.90;99.90;;;;;;5032869;28;20497;-68
2022/04/11 01:22:39;;;;;;;1.63;1.50;;;3.90;99.90;;;;;;5032561;28;20406;-68
2022/04/11 01:25:05;;;;;;;0.83;0.83;;;3.90;99.90;;;;;;5032392;28;20402;-68
2022/04/11 01:27:31;;;;;;;1.10;1.00;;;3.80;99.90;;;;;;5029267;28;20464;-68
2022/04/11 01:29:57;;;;;;;1.23;1.10;;;3.80;99.90;;;;;;5032639;28;20461;-69
2022/04/11 01:32:23;;;;;;;3.63;2.30;;;3.70;99.90;;;;;;5032330;28;20972;-68
2022/04/11 01:34:48;;;;;;;2.20;1.20;;;3.60;99.90;;;;;;5032309;28;20497;-68
2022/04/11 01:37:14;;;;;;;2.43;1.50;;;3.70;99.90;;;;;;5032727;28;20183;-69
2022/04/11 01:39:39;;;;;;;6.93;1.97;;;3.70;99.90;;;;;;5032423;28;20179;-69
2022/04/11 01:42:05;;;;;;;1.70;1.47;;;3.70;99.90;;;;;;5032134;28;20221;-69
2022/04/11 01:44:30;;;;;;;1.60;1.50;;;3.60;99.90;;;;;;5032295;28;20681;-69
2022/04/11 01:46:56;;;;;;;2.60;1.87;;;3.60;99.90;;;;;;5032414;28;20199;-69
2022/04/11 01:49:21;;;;;;;1.70;1.60;;;3.60;99.90;;;;;;5032054;28;20282;-69
2022/04/11 01:51:47;;;;;;;3.30;1.10;;;3.50;99.90;;;;;;5031989;28;20172;-68
2022/04/11 01:54:12;;;;;;;2.23;1.30;;;3.50;99.90;;;;;;5031978;28;20183;-68
2022/04/11 01:56:38;;;;;;;2.77;1.83;;;3.60;99.90;;;;;;5032471;28;20218;-69
2022/04/11 01:59:03;;;;;;;2.60;1.13;;;3.50;99.90;;;;;;5032381;28;20669;-69
2022/04/11 02:01:29;;;;;;;1.40;1.30;;;3.40;99.90;;;;;;5031996;28;20171;-69
2022/04/11 02:03:54;;;;;;;1.17;1.17;;;3.40;99.90;;;;;;5032004;28;20188;-69
2022/04/11 02:06:19;;;;;;;2.60;1.50;;;3.30;99.90;;;;;;5031624;28;20538;-69
2022/04/11 02:08:45;;;;;;;1.47;1.20;;;3.20;99.90;;;;;;5031482;28;20183;-68
2022/04/11 02:11:11;;;;;;;2.17;1.77;;;3.20;99.90;;;;;;5031822;28;20211;-69
2022/04/11 02:13:36;;;;;;;1.20;1.10;;;3.10;99.90;;;;;;5031782;28;20168;-69
2022/04/11 02:16:02;;;;;;;2.00;1.43;;;3.10;99.90;;;;;;5031752;28;20646;-69
2022/04/11 02:18:27;;;;;;;1.57;1.47;;;3.20;99.90;;;;;;5029696;28;20276;-68
2022/04/11 02:20:53;;;;;;;1.30;1.13;;;3.20;99.90;;;;;;5020711;28;20167;-69
2022/04/11 02:23:18;;;;;;;3.17;2.60;;;3.20;99.90;;;;;;5031269;28;20252;-68
2022/04/11 02:25:44;;;;;;;1.00;0.90;;;3.30;99.90;;;;;;5031142;28;20180;-69
2022/04/11 02:28:10;;;;;;;1.80;1.70;;;3.30;99.90;;;;;;5031606;28;20183;-68
2022/04/11 02:30:35;;;;;;;1.90;1.80;;;3.40;99.90;;;;;;5031291;28;20744;-70
2022/04/11 02:33:01;;;;;;;1.47;1.20;;;3.30;99.90;;;;;;5031470;28;20398;-68
2022/04/11 02:35:26;;;;;;;2.17;1.40;;;3.10;99.90;;;;;;5031955;28;20160;-68
2022/04/11 02:37:52;;;;;;;5.23;1.47;;;3.10;99.90;;;;;;5027626;28;20179;-69
2022/04/11 02:40:18;;;;;;;1.53;1.40;;;3.30;99.90;;;;;;5032440;28;20175;-69
2022/04/11 02:42:45;;;;;;;1.40;1.30;;;3.30;99.90;;;;;;5031397;28;20413;-68
2022/04/11 02:45:14;;;;;;;2.03;1.43;;;3.20;99.90;;;;;;5031305;28;20178;-68
2022/04/11 02:47:40;;;;;;;6.10;1.33;;;3.10;99.90;;;;;;5031340;28;20429;-69
2022/04/11 02:50:06;;;;;;;4.00;1.87;;;3.00;99.90;;;;;;5031343;28;20446;-68
2022/04/11 02:52:32;;;;;;;2.80;2.50;;;2.90;99.90;;;;;;5031638;28;20247;-69
2022/04/11 02:54:58;;;;;;;1.13;0.87;;;2.90;99.90;;;;;;5031622;28;20892;-69
2022/04/11 02:57:24;;;;;;;2.40;1.90;;;2.80;99.90;;;;;;5032642;28;20426;-69
2022/04/11 02:59:50;;;;;;;2.00;1.80;;;2.80;99.90;;;;;;5031887;28;20429;-68
2022/04/11 03:02:16;;;;;;;3.00;2.80;;;2.80;99.90;;;;;;5031583;28;20254;-68
2022/04/11 03:04:42;;;;;;;2.00;1.63;;;2.90;99.90;;;;;;5031313;28;20433;-68
2022/04/11 03:07:08;;;;;;;6.37;1.40;;;2.90;99.90;;;;;;5030968;28;20199;-68
2022/04/11 03:09:33;;;;;;;1.33;1.17;;;2.80;99.90;;;;;;5031117;28;20464;-69
2022/04/11 03:11:59;;;;;;;1.20;1.10;;;2.70;99.90;;;;;;5031291;28;20172;-69
2022/04/11 03:14:24;;;;;;;5.23;1.63;;;2.80;99.90;;;;;;5031077;28;20175;-69
2022/04/11 03:16:50;;;;;;;8.83;2.50;;;2.70;99.90;;;;;;5031094;28;20188;-69
2022/04/11 03:19:16;;;;;;;1.40;1.30;;;2.70;99.90;;;;;;5031170;28;20167;-69
2022/04/11 03:21:42;;;;;;;1.80;1.70;;;2.70;99.90;;;;;;5033584;28;20171;-68
2022/04/11 03:24:07;;;;;;;2.17;1.97;;;2.50;99.90;;;;;;5034728;28;20399;-68
2022/04/11 03:26:33;;;;;;;1.30;1.20;;;2.50;99.90;;;;;;5034552;28;20238;-69
2022/04/11 03:28:58;;;;;;;3.63;1.33;;;2.60;99.90;;;;;;5034827;28;20265;-70
2022/04/11 03:31:25;;;;;;;2.97;1.30;;;2.70;99.90;;;;;;5034690;28;20168;-69
2022/04/11 03:33:50;;;;;;;1.17;1.17;;;2.80;99.90;;;;;;5034672;28;20600;-69
2022/04/11 03:36:16;;;;;;;1.30;1.30;;;2.70;99.90;;;;;;5034360;28;20485;-68
2022/04/11 03:38:41;;;;;;;2.30;1.30;;;2.70;99.90;;;;;;5034414;28;20172;-68
2022/04/11 03:41:07;;;;;;;2.03;1.50;;;2.80;99.90;;;;;;5034766;28;20171;-68
2022/04/11 03:43:32;;;;;;;1.47;1.17;;;2.80;99.90;;;;;;5034450;28;20172;-69
2022/04/11 03:45:57;;;;;;;3.13;1.90;;;2.70;99.90;;;;;;5034394;28;20666;-68
2022/04/11 03:48:23;;;;;;;5.50;2.40;;;2.60;99.90;;;;;;5034406;28;20246;-68
2022/04/11 03:50:48;;;;;;;2.63;1.50;;;2.50;99.90;;;;;;5034442;28;20203;-68
2022/04/11 03:53:16;;;;;;;2.07;1.83;;;2.40;99.90;;;;;;5034094;28;20207;-68
2022/04/11 03:55:41;;;;;;;1.60;1.50;;;2.50;99.90;;;;;;5034441;28;20535;-68
2022/04/11 03:58:07;;;;;;;1.83;1.73;;;2.50;99.90;;;;;;5034139;28;20423;-69
2022/04/11 04:00:32;;;;;;;2.00;1.80;;;2.70;99.90;;;;;;5034347;28;20176;-68
2022/04/11 04:03:06;;;;;;;1.70;1.60;;;2.60;99.90;;;;;;5034483;28;20255;-69
2022/04/11 04:05:31;;;;;;;1.47;1.37;;;2.50;99.90;;;;;;5034064;28;20706;-68
2022/04/11 04:07:57;;;;;;;2.43;1.43;;;2.40;99.90;;;;;;5033672;28;20537;-69
2022/04/11 04:10:26;;;;;;;1.30;1.20;;;2.50;99.90;;;;;;5032780;28;20919;-69
2022/04/11 04:12:56;;;;;;;1.83;1.20;;;2.50;99.90;;;;;;5033987;28;20525;-69
2022/04/11 04:15:22;;;;;;;1.77;1.67;;;2.30;99.90;;;;;;5034182;28;20410;-68
2022/04/11 04:17:47;;;;;;;2.80;1.63;;;2.50;99.90;;;;;;5033810;28;20437;-69
2022/04/11 04:20:13;;;;;;;2.00;0.90;;;2.40;99.90;;;;;;5033935;28;20665;-70
2022/04/11 04:22:38;;;;;;;2.50;1.60;;;2.40;99.90;;;;;;5033810;28;20229;-69
2022/04/11 04:25:04;;;;;;;1.73;1.57;;;2.60;99.90;;;;;;5032977;28;20172;-68
2022/04/11 04:27:30;;;;;;;1.23;1.13;;;2.50;99.90;;;;;;5035962;28;20214;-69
2022/04/11 04:29:55;;;;;;;2.80;2.17;;;2.50;99.90;;;;;;5033935;28;20809;-68
2022/04/11 04:32:22;;;;;;;2.30;1.40;;;2.50;99.90;;;;;;5033483;28;20274;-68
2022/04/11 04:34:47;;;;;;;6.73;1.50;;;2.60;99.90;;;;;;5033655;28;20270;-68
2022/04/11 04:37:13;;;;;;;3.67;1.70;;;2.50;99.90;;;;;;5029062;28;20553;-69
2022/04/11 04:39:38;;;;;;;1.10;1.00;;;2.60;99.90;;;;;;5024501;28;20230;-68
2022/04/11 04:42:05;;;;;;;1.03;1.03;;;2.50;99.90;;;;;;5033340;28;20163;-69
2022/04/11 04:44:30;;;;;;;1.90;1.10;;;2.40;99.90;;;;;;5015698;28;20229;-69
2022/04/11 04:46:55;;;;;;;2.10;1.27;;;2.40;99.90;;;;;;5013616;28;20423;-69
2022/04/11 04:49:21;;;;;;;10.23;2.07;;;2.40;99.90;;;;;;5013194;28;20196;-69
2022/04/11 04:51:46;;;;;;;2.23;1.53;;;2.60;99.90;;;;;;5013222;28;20558;-69
2022/04/11 04:54:12;;;;;;;1.20;1.10;;;2.60;99.90;;;;;;5013455;28;20172;-69
2022/04/11 04:56:37;;;;;;;0.97;0.97;;;2.60;99.90;;;;;;5025426;28;20191;-68
2022/04/11 04:59:03;;;;;;;1.60;1.50;;;2.50;99.90;;;;;;5033040;28;20172;-69
2022/04/11 05:01:28;;;;;;;3.53;2.20;;;2.50;99.90;;;;;;5032844;28;20167;-69
2022/04/11 05:03:54;;;;;;;1.30;1.10;;;2.50;99.90;;;;;;5033330;28;20207;-69
2022/04/11 05:06:22;;;;;;;3.03;1.50;;;2.60;99.90;;;;;;5032470;28;20646;-68
2022/04/11 05:08:48;;;;;;;1.97;1.70;;;2.70;99.90;;;;;;5030746;28;20410;-69
2022/04/11 05:11:13;;;;;;;1.80;1.20;;;2.60;99.90;;;;;;5033351;28;20406;-69
2022/04/11 05:13:40;;;;;;;2.87;1.10;;;2.80;99.90;;;;;;5032814;28;20203;-69
2022/04/11 05:16:05;;;;;;;2.13;1.90;;;2.80;99.90;;;;;;5032943;28;20188;-68
2022/04/11 05:18:31;;;;;;;1.47;1.03;;;2.80;99.90;;;;;;5032733;28;20470;-69
2022/04/11 05:20:56;;;;;;;2.40;1.57;;;2.90;99.90;;;;;;5032679;28;20171;-70
2022/04/11 05:23:22;;;;;;;1.27;1.17;;;3.00;99.90;;;;;;5032598;28;20217;-68
2022/04/11 05:25:47;;;;;;;1.40;1.30;;;3.10;99.90;;;;;;5029447;28;20479;-68
2022/04/11 05:28:13;;;;;;;1.60;1.40;;;3.10;99.90;;;;;;5032803;28;20203;-69
2022/04/11 05:30:38;;;;;;;1.53;1.40;;;3.30;99.90;;;;;;5032404;28;20265;-68
2022/04/11 05:33:04;;;;;;;2.20;1.60;;;3.30;99.90;;;;;;5032540;28;20203;-68
2022/04/11 05:35:29;;;;;;;1.83;1.67;;;3.30;99.90;;;;;;5033079;28;20195;-69
2022/04/11 05:37:55;;;;;;;1.83;1.60;;;3.40;99.90;;;;;;5034081;28;20422;-69
2022/04/11 05:40:21;;;;;;;1.43;1.33;;;3.40;99.90;;;;;;5033607;28;20174;-69
2022/04/11 05:42:47;;;;;;;1.77;1.67;;;3.60;99.90;;;;;;5033489;28;20164;-68
2022/04/11 05:45:13;;;;;;;2.70;2.07;;;3.70;99.90;;;;;;5032331;28;20410;-69
2022/04/11 05:47:38;;;;;;;3.90;2.40;;;4.00;99.90;;;;;;5032496;28;20195;-68
2022/04/11 05:50:04;;;;;;;7.50;3.57;;;4.60;99.90;;;;;;5032075;28;20496;-68
2022/04/11 05:52:30;;;;;;;4.97;3.63;;;5.80;99.90;;;;;;5032003;28;20172;-69
2022/04/11 05:54:55;;;;;;;6.20;3.43;;;5.80;99.90;;;;;;5032020;28;20908;-70
2022/04/11 05:57:20;;;;;;;3.50;1.80;;;6.50;99.90;;;;;;5032266;28;20238;-68
2022/04/11 05:59:46;;;;;;;2.03;1.60;;;6.10;99.90;;;;;;5032040;28;20179;-70
2022/04/11 06:02:11;;;;;;;1.37;1.27;;;6.70;99.90;;;;;;5031855;28;20164;-69
2022/04/11 06:04:38;;;;;;;1.60;1.10;;;6.60;99.90;;;;;;5031955;28;20199;-68
2022/04/11 06:07:04;;;;;;;1.53;1.43;;;7.00;99.90;;;;;;5032141;28;20242;-69
2022/04/11 06:09:30;;;;;;;3.00;1.10;;;7.30;99.90;;;;;;5012383;28;20451;-69
2022/04/11 06:11:56;;;;;;;4.00;1.40;;;7.80;99.90;;;;;;5012795;28;20485;-69
2022/04/11 06:14:22;;;;;;;1.33;1.17;;;8.50;99.90;;;;;;5012796;28;20406;-69
2022/04/11 06:16:47;;;;;;;1.20;1.10;;;8.80;99.90;;;;;;5014624;28;20423;-68
2022/04/11 06:19:13;;;;;;;2.20;2.00;;;9.30;99.90;;;;;;5013786;28;20183;-68
2022/04/11 06:21:38;;;;;;;1.40;1.00;;;10.10;99.90;;;;;;5014019;28;20176;-69
2022/04/11 06:24:04;;;;;;;1.20;1.10;;;9.90;99.90;;;;;;5013940;28;20180;-68
2022/04/11 06:26:30;;;;;;;2.37;1.50;;;10.80;99.90;;;;;;5024446;28;20663;-69
2022/04/11 06:28:55;;;;;;;1.43;1.33;;;11.60;99.90;;;;;;5025788;28;20293;-69
2022/04/11 06:31:21;;;;;;;4.00;1.33;;;10.40;99.90;;;;;;5030517;28;20167;-69
2022/04/11 06:33:46;;;;;;;2.27;1.30;;;10.40;99.90;;;;;;5027214;28;20178;-69
2022/04/11 06:36:12;;;;;;;1.63;1.40;;;9.80;99.90;;;;;;5031191;28;20572;-69
2022/04/11 06:38:37;;;;;;;1.30;1.07;;;11.00;99.90;;;;;;5029899;28;20182;-68
2022/04/11 06:41:04;;;;;;;1.43;0.93;;;9.70;99.90;;;;;;5031434;28;20176;-71
2022/04/11 06:43:30;;;;;;;5.57;1.20;;;9.80;99.90;;;;;;5031099;28;20179;-71
2022/04/11 06:45:55;;;;;;;1.43;1.03;;;11.00;99.90;;;;;;5027035;28;20508;-69
2022/04/11 06:48:21;;;;;;;1.43;1.23;;;12.70;99.90;;;;;;5031609;28;20209;-69
2022/04/11 06:50:46;;;;;;;1.23;1.13;;;13.20;99.90;;;;;;5026437;28;20206;-69
2022/04/11 06:53:14;;;;;;;5.70;1.67;;;12.70;99.90;;;;;;5031227;28;20335;-68
2022/04/11 06:55:40;;;;;;;0.80;0.80;;;13.30;99.90;;;;;;5033846;28;20520;-69
2022/04/11 06:58:05;;;;;;;1.80;1.20;;;11.40;98.30;;;;;;5035042;28;20434;-69
2022/04/11 07:00:31;;;;;;;1.40;1.10;;;10.10;99.90;;;;;;5034783;28;20633;-72
2022/04/11 07:02:56;;;;;;;2.03;1.17;;;10.30;99.90;;;;;;5028745;28;20178;-69
2022/04/11 07:05:22;;;;;;;1.23;1.10;;;10.50;99.90;;;;;;5033629;28;20533;-68
2022/04/11 07:07:47;;;;;;;2.20;1.20;;;12.60;99.90;;;;;;5031493;28;20213;-69
2022/04/11 07:10:13;;;;;;;3.60;1.77;;;11.90;99.40;;;;;;5025065;28;20628;-69
2022/04/11 07:12:39;;;;;;;1.40;1.20;;;12.10;97.00;;;;;;5035328;28;20510;-69
2022/04/11 07:15:08;;;;;;;1.97;1.53;;;12.00;99.60;;;;;;5034831;28;20184;-69
2022/04/11 07:17:34;;;;;;;3.00;1.27;;;12.40;96.70;;;;;;5034648;28;20526;-68
2022/04/11 07:20:01;;;;;;;2.60;1.40;;;12.80;99.60;;;;;;5035353;28;20527;-69
2022/04/11 07:22:26;;;;;;;1.70;1.10;;;13.70;97.80;;;;;;5034786;28;20191;-69
2022/04/11 07:24:52;;;;;;;1.40;1.00;;;11.80;94.60;;;;;;5034416;28;20422;-68
2022/04/11 07:27:17;;;;;;;1.60;1.13;;;11.80;97.70;;;;;;5029315;28;20284;-69
2022/04/11 07:29:43;;;;;;;1.17;1.07;;;12.00;96.70;;;;;;5035583;28;20227;-69
2022/04/11 07:32:09;;;;;;;1.57;1.33;;;11.90;98.80;;;;;;5035018;28;20185;-69
2022/04/11 07:34:35;;;;;;;1.87;1.40;;;14.00;95.60;;;;;;5035273;28;20164;-69
2022/04/11 07:37:00;;;;;;;1.13;0.97;;;12.90;95.40;;;;;;5022648;28;20219;-68
2022/04/11 07:39:25;;;;;;;1.20;1.10;;;11.40;94.90;;;;;;5034684;28;20428;-69
2022/04/11 07:41:53;;;;;;;2.90;1.03;;;11.10;95.60;;;;;;5034693;28;20183;-69
2022/04/11 07:44:19;;;;;;;2.10;0.90;;;11.30;96.40;;;;;;5034988;28;20173;-69
2022/04/11 07:46:44;;;;;;;1.93;0.80;;;10.80;95.40;;;;;;5034416;28;20442;-68
2022/04/11 07:49:10;;;;;;;1.43;1.30;;;10.80;96.20;;;;;;5034812;28;20452;-69
2022/04/11 07:51:35;;;;;;;2.03;1.00;;;11.40;95.60;;;;;;5033241;28;20274;-68
2022/04/11 07:54:01;;;;;;;1.00;0.90;;;12.10;96.20;;;;;;5033655;28;20184;-69
2022/04/11 07:56:28;;;;;;;0.70;0.70;;;11.20;94.30;;;;;;5034659;28;20177;-70
2022/04/11 07:58:54;;;;;;;1.30;1.00;;;11.30;96.00;;;;;;5033465;28;20174;-69
2022/04/11 08:01:21;;;;;;;1.43;1.17;;;13.60;95.30;;;;;;5029988;28;20783;-68
2022/04/11 08:03:47;;;;;;;1.20;1.10;;;13.60;92.90;;;;;;5035711;28;20422;-69
2022/04/11 08:06:12;;;;;;;1.83;1.20;;;12.60;94.00;;;;;;5033415;28;20504;-70
2022/04/11 08:08:44;;;;;;;2.70;1.10;;;13.60;94.00;;;;;;5034168;28;20445;-68
2022/04/11 08:11:10;;;;;;;1.00;0.70;;;12.80;92.40;;;;;;5034613;28;20211;-69
2022/04/11 08:13:36;;;;;;;2.60;1.57;;;12.80;93.90;;;;;;5033783;28;20458;-68
2022/04/11 08:16:01;;;;;;;4.67;1.33;;;12.50;92.40;;;;;;5034034;28;20947;-68
2022/04/11 08:18:27;;;;;;;0.80;0.80;;;12.60;93.80;;;;;;5033944;28;20595;-68
2022/04/11 08:20:52;;;;;;;1.47;1.10;;;14.30;90.20;;;;;;5033323;28;20185;-71
2022/04/11 08:23:17;;;;;;;4.80;1.23;;;12.80;86.60;;;;;;5034441;28;20268;-69
2022/04/11 08:25:43;;;;;;;2.93;1.00;;;12.40;91.80;;;;;;5028892;28;20176;-68
2022/04/11 08:28:08;;;;;;;4.23;1.00;;;14.10;91.00;;;;;;5033007;28;20276;-68
2022/04/11 08:30:34;;;;;;;1.30;0.97;;;13.30;89.10;;;;;;5033455;28;20666;-69
2022/04/11 08:32:59;;;;;;;0.93;0.83;;;13.30;87.20;;;;;;5032549;28;20199;-70
2022/04/11 08:35:25;;;;;;;1.83;1.10;;;14.10;85.70;;;;;;5025611;28;20174;-69
2022/04/11 08:37:50;;;;;;;1.93;0.83;;;13.50;88.50;;;;;;5027156;28;20198;-69
2022/04/11 08:40:20;;;;;;;1.80;1.30;;;15.10;84.90;;;;;;5035287;28;20239;-69
2022/04/11 08:42:48;;;;;;;1.83;1.03;;;13.90;83.20;;;;;;5033724;28;20561;-69
2022/04/11 08:45:15;;;;;;;0.90;0.80;;;12.90;84.40;;;;;;5033585;28;20797;-69
2022/04/11 08:47:42;;;;;;;0.73;0.73;;;13.50;88.60;;;;;;5034861;28;20436;-69
2022/04/11 08:50:08;;;;;;;1.30;0.90;;;13.50;82.80;;;;;;5033731;28;20464;-69
2022/04/11 08:52:35;;;;;;;0.80;0.80;;;13.10;86.00;;;;;;5033491;28;20423;-69
2022/04/11 08:55:01;;;;;;;1.50;0.90;;;12.10;81.60;;;;;;5032940;28;20423;-69
2022/04/11 08:57:27;;;;;;;0.60;0.60;;;13.20;85.60;;;;;;5032941;28;20450;-69
2022/04/11 08:59:52;;;;;;;1.10;0.70;;;13.80;82.40;;;;;;5033300;28;20430;-69
2022/04/11 09:02:18;;;;;;;1.00;0.83;;;13.10;77.90;;;;;;5027366;28;20176;-69
2022/04/11 09:04:51;;;;;;;1.40;1.20;;;11.80;80.60;;;;;;5029674;28;20173;-71
2022/04/11 09:07:17;;;;;;;1.00;0.90;;;13.30;85.10;;;;;;5022805;28;20697;-69
2022/04/11 09:09:42;;;;;;;0.70;0.70;;;13.00;80.80;;;;;;5033586;28;20451;-70
2022/04/11 09:12:14;;;;;;;1.03;0.87;;;13.10;81.40;;;;;;5033762;28;20643;-69
2022/04/11 09:14:40;;;;;;;3.93;1.23;;;13.70;83.50;;;;;;5032509;28;20179;-69
2022/04/11 09:17:06;;;;;;;0.97;0.80;;;14.50;79.20;;;;;;5033263;28;20469;-69
2022/04/11 09:19:31;;;;;;;1.53;1.10;;;13.50;74.60;;;;;;5032954;28;20423;-70
2022/04/11 09:21:57;;;;;;;1.53;1.03;;;13.20;81.40;;;;;;5031860;28;20178;-69
2022/04/11 09:24:29;;;;;;;1.00;0.80;;;12.90;84.80;;;;;;5031521;28;20177;-70
2022/04/11 09:26:55;;;;;;;1.13;1.00;;;13.00;78.80;;;;;;5032702;28;20457;-68
2022/04/11 09:29:23;;;;;;;1.10;0.90;;;12.50;80.30;;;;;;5032722;28;20459;-68
2022/04/11 09:31:48;;;;;;;1.50;1.00;;;12.80;79.30;;;;;;5031888;28;20421;-69
2022/04/11 09:34:15;;;;;;;1.00;0.80;;;12.30;76.40;;;;;;5043787;28;20430;-69
2022/04/11 09:36:46;;;;;;;1.30;1.20;;;13.50;74.50;;;;;;5019429;28;20274;-69
2022/04/11 09:39:11;;;;;;;1.50;0.90;;;13.40;71.50;;;;;;5033120;28;20425;-68
2022/04/11 09:41:42;;;;;;;0.73;0.70;;;12.90;74.80;;;;;;5033120;28;20609;-69
2022/04/11 09:44:29;;;;;;;1.53;0.80;;;13.40;73.10;;;;;;5033216;28;20214;-69
2022/04/11 09:46:59;;;;;;;1.03;0.97;;;14.70;70.80;;;;;;5031013;28;20504;-69
2022/04/11 09:49:25;;;;;;;1.83;1.30;;;13.00;68.50;;;;;;5032612;28;20545;-69
2022/04/11 09:52:07;;;;;;;1.00;0.90;;;13.90;69.70;;;;;;5032861;28;20463;-70
2022/04/11 09:54:37;;;;;;;1.97;0.90;;;13.40;67.90;;;;;;5034454;28;20177;-69
2022/04/11 09:57:04;;;;;;;1.87;0.80;;;12.90;68.70;;;;;;5032375;28;20533;-68
2022/04/11 09:59:30;;;;;;;1.00;0.90;;;12.90;71.50;;;;;;5032067;28;20423;-69
2022/04/11 10:01:57;;;;;;;1.30;0.90;;;12.80;70.20;;;;;;5031913;28;20425;-69
2022/04/11 10:04:23;;;;;;;0.90;0.80;;;13.00;72.80;;;;;;5031986;28;20437;-69
2022/04/11 10:06:49;;;;;;;1.83;1.00;;;13.40;72.80;;;;;;5031919;28;21031;-69
2022/04/11 10:09:16;;;;;;;3.13;1.00;;;13.10;69.20;;;;;;5018881;28;20515;-69
2022/04/11 10:11:45;;;;;;;1.13;0.80;;;12.80;68.70;;;;;;5031875;28;20638;-69
2022/04/11 10:14:12;;;;;;;1.07;0.83;;;12.10;72.20;;;;;;5031703;28;20944;-69
2022/04/11 10:16:42;;;;;;;1.00;1.00;;;11.80;70.40;;;;;;5031779;28;20810;-68
2022/04/11 10:19:08;;;;;;;1.10;1.00;;;12.20;70.70;;;;;;5028680;28;20435;-68
2022/04/11 10:21:36;;;;;;;0.80;0.70;;;11.60;69.20;;;;;;5028045;28;20964;-69
2022/04/11 10:24:34;;;;;;;0.77;0.77;;;12.00;71.30;;;;;;5031666;28;20497;-69
2022/04/11 10:27:25;;;;;;;1.10;0.90;;;12.10;70.20;;;;;;5024986;28;21023;-68
2022/04/11 10:29:54;;;;;;;1.20;1.10;;;12.40;72.20;;;;;;5022569;28;20822;-68
2022/04/11 10:32:26;;;;;;;1.23;0.90;;;12.50;72.40;;;;;;5031032;28;20892;-68
2022/04/11 10:35:08;;;;;;;4.60;1.17;;;12.50;72.30;;;;;;5029296;28;20437;-69
2022/04/11 10:37:39;;;;;;;1.57;1.00;;;12.20;71.50;;;;;;5022416;28;20441;-70
2022/04/11 10:40:17;;;;;;;1.00;0.90;;;11.90;72.40;;;;;;5031434;28;20422;-69
2022/04/11 10:43:01;;;;;;;2.50;1.17;;;12.10;73.00;;;;;;5031566;28;20430;-69
2022/04/11 10:45:39;;;;;;;0.80;0.80;;;12.20;70.90;;;;;;5031430;28;20410;-69
2022/04/11 10:48:06;;;;;;;2.20;1.00;;;12.20;72.20;;;;;;5027378;28;20458;-69
2022/04/11 10:50:35;;;;;;;2.93;1.07;;;11.90;69.70;;;;;;5031133;28;20512;-69
2022/04/11 10:53:11;;;;;;;2.03;1.00;;;12.30;71.30;;;;;;5031807;28;20414;-68
2022/04/11 10:55:56;;;;;;;1.30;1.07;;;12.40;68.40;;;;;;5031070;28;20414;-71
2022/04/11 10:58:37;;;;;;;0.87;0.87;;;12.60;70.60;;;;;;5030926;28;20576;-70
2022/04/11 11:01:03;;;;;;;1.23;0.90;;;12.50;71.30;;;;;;5031320;28;20426;-69
2022/04/11 11:03:28;;;;;;;1.30;1.10;;;12.70;69.40;;;;;;5031587;28;20422;-69
2022/04/11 11:05:54;;;;;;;1.03;0.87;;;12.70;69.20;;;;;;5029553;28;20180;-69
2022/04/11 11:08:21;;;;;;;1.83;0.90;;;12.00;68.70;;;;;;5028451;28;20207;-70
2022/04/11 11:10:53;;;;;;;1.20;1.10;;;11.70;70.40;;;;;;5030570;28;20194;-69
2022/04/11 11:13:39;;;;;;;1.20;1.17;;;11.90;69.40;;;;;;5028726;28;20410;-69
2022/04/11 11:16:07;;;;;;;1.03;0.93;;;11.90;69.50;;;;;;5031137;28;20410;-69
2022/04/11 11:18:51;;;;;;;1.77;1.00;;;11.80;71.50;;;;;;5031471;28;20509;-69
2022/04/11 11:21:32;;;;;;;1.60;1.17;;;12.00;70.00;;;;;;5029922;28;20422;-69
2022/04/11 11:24:04;;;;;;;1.90;1.40;;;11.80;71.80;;;;;;5031239;28;20787;-68
2022/04/11 11:26:46;;;;;;;1.07;0.77;;;12.00;70.30;;;;;;5028618;28;20427;-69
2022/04/11 11:29:23;;;;;;;1.10;0.97;;;11.90;69.50;;;;;;5030826;28;20406;-68
2022/04/11 11:31:50;;;;;;;2.37;1.20;;;11.50;68.00;;;;;;5031114;28;20430;-68
2022/04/11 11:34:18;;;;;;;0.90;0.90;;;11.40;70.70;;;;;;5030529;28;20433;-69
2022/04/11 11:36:44;;;;;;;1.23;1.10;;;12.00;71.90;;;;;;5016540;28;20857;-69
2022/04/11 11:39:18;;;;;;;1.27;0.90;;;12.70;69.00;;;;;;5032252;28;20418;-68
2022/04/11 11:41:44;;;;;;;0.90;0.90;;;12.60;69.40;;;;;;5035510;28;20928;-69
2022/04/11 11:44:11;;;;;;;1.10;1.00;;;13.30;70.00;;;;;;5034418;28;20441;-68
2022/04/11 11:46:56;;;;;;;0.90;0.90;;;13.50;68.90;;;;;;5034205;28;20442;-69
2022/04/11 11:49:23;;;;;;;1.30;0.90;;;13.10;68.80;;;;;;5020016;28;20450;-69
2022/04/11 11:51:49;;;;;;;1.63;1.53;;;12.10;69.60;;;;;;5034210;28;20419;-69
2022/04/11 11:54:33;;;;;;;1.37;1.00;;;12.00;71.00;;;;;;5034352;28;20912;-70
2022/04/11 11:56:58;;;;;;;1.53;1.10;;;12.10;71.90;;;;;;5032040;28;20960;-69
2022/04/11 11:59:25;;;;;;;1.30;1.20;;;12.30;73.90;;;;;;5031032;28;20439;-69
2022/04/11 12:04:35;;;;;;;2.90;0.90;;;12.20;71.90;;;;;;5028104;28;20468;-69
2022/04/11 12:07:00;;;;;;;1.10;1.00;;;12.30;73.40;;;;;;5032033;28;20476;-69
2022/04/11 12:09:37;;;;;;;2.20;1.23;;;12.70;75.20;;;;;;5027931;28;20459;-68
2022/04/11 12:12:08;;;;;;;1.47;1.33;;;13.10;74.90;;;;;;5033901;28;20175;-69
2022/04/11 12:15:05;;;;;;;1.23;1.10;;;12.90;72.60;;;;;;5028376;28;20912;-68
2022/04/11 12:17:34;;;;;;;1.27;1.00;;;12.70;74.90;;;;;;5032977;28;20441;-69
2022/04/11 12:20:17;;;;;;;1.23;1.00;;;12.70;73.80;;;;;;5032393;28;20437;-68
2022/04/11 12:23:08;;;;;;;2.60;1.20;;;12.00;69.80;;;;;;5033886;28;20426;-71
2022/04/11 12:25:36;;;;;;;1.70;1.40;;;12.70;70.90;;;;;;5033387;28;20603;-71
2022/04/11 12:28:12;;;;;;;1.43;0.70;;;12.90;70.90;;;;;;5033804;28;20581;-69
2022/04/11 12:30:39;;;;;;;2.20;1.13;;;13.20;71.60;;;;;;5033704;28;21002;-68
2022/04/11 12:33:05;;;;;;;2.60;1.23;;;13.40;71.00;;;;;;5034171;28;20442;-69
2022/04/11 12:35:31;;;;;;;0.93;0.90;;;12.80;69.60;;;;;;5026515;28;20961;-70
2022/04/11 12:38:00;;;;;;;2.07;1.30;;;12.40;70.00;;;;;;5032145;28;20674;-68
2022/04/11 12:40:43;;;;;;;2.20;1.13;;;13.10;71.50;;;;;;5033389;28;20179;-69
2022/04/11 12:43:09;;;;;;;2.70;1.10;;;13.40;69.70;;;;;;5033470;28;20448;-69
2022/04/11 12:45:34;;;;;;;2.27;1.23;;;13.30;70.10;;;;;;5033710;28;20419;-68
2022/04/11 12:48:05;;;;;;;1.60;1.30;;;12.30;71.00;;;;;;5022915;28;20192;-68
2022/04/11 12:50:33;;;;;;;1.20;1.10;;;12.70;74.20;;;;;;5028448;28;20191;-69
2022/04/11 12:52:58;;;;;;;2.83;1.47;;;12.70;73.80;;;;;;5028165;28;20410;-68
2022/04/11 12:55:27;;;;;;;1.23;1.03;;;13.10;74.50;;;;;;5033640;28;20483;-69
2022/04/11 12:58:00;;;;;;;3.03;1.27;;;12.90;73.70;;;;;;5030193;28;20572;-70